Cleveland, Ohio
Current Conditions -  °F | °C
As of 1:53 AM on Friday 28 Nov 2014 (Local Time) from KBKL Reporting Station
Broken Clouds Broken Clouds  
Wind Chill: 18°   Ceiling: 5500
Heat Index: 30°   Visibility: 10mi
Dew Point: 19°   Wind: 17mph
Humidity: 64%   Direction: 290°WNW
Pressure: 30.26"   Gusts: 29mph
Location:  41.5°N, 81.69°W
Report Text: KBKL 280653Z 29015G25KT 10SM FEW033 SCT043 BKN055 M01/M07 A3026 RMK AO2 SLP254 T10111072
Loading
Personal Weather Stations






























Interactive Weather Map New forecast layout! Learn more

10-Day Weather Forecast

Advertisements
Track Severe Weather on mobile